Time;durP1;ratioP1;P1;durP2;ratioP2;P2;SDS_P1;SDS_P2;PMS_P1;PMS_P2;Temp;Humidity;BMP_temperature;BMP_pressure;BME280_temperature;BME280_humidity;BME280_pressure;Samples;Min_cycle;Max_cycle;Signal;HPM_P1;HPM_P2
2023/04/21 00:00:19;;;;;;;1999.90;999.90;;;8.20;99.90;;;;;;5072237;28;20551;-69
2023/04/21 00:02:45;;;;;;;1999.90;999.90;;;8.20;99.90;;;;;;5072362;28;20021;-69
2023/04/21 00:05:12;;;;;;;1999.90;999.90;;;8.20;99.90;;;;;;5072246;28;20108;-69
2023/04/21 00:07:39;;;;;;;1999.90;999.90;;;8.30;99.90;;;;;;5072429;28;20021;-68
2023/04/21 00:10:14;;;;;;;1999.90;999.90;;;8.30;99.90;;;;;;5072374;28;20052;-70
2023/04/21 00:12:40;;;;;;;1999.90;999.90;;;8.30;99.90;;;;;;5072150;28;20021;-75
2023/04/21 00:15:06;;;;;;;1999.90;999.90;;;8.30;99.90;;;;;;5072055;28;20550;-74
2023/04/21 00:17:32;;;;;;;1999.90;999.90;;;8.20;99.90;;;;;;5072131;28;20151;-75
2023/04/21 00:19:57;;;;;;;1999.90;999.90;;;8.20;99.90;;;;;;5071455;28;20111;-69
2023/04/21 00:22:23;;;;;;;1999.90;999.90;;;8.10;99.90;;;;;;5072356;28;20752;-75
2023/04/21 00:24:49;;;;;;;1999.90;999.90;;;8.00;99.90;;;;;;5075835;28;20032;-75
2023/04/21 00:27:15;;;;;;;1999.90;999.90;;;8.00;99.90;;;;;;5075557;28;20104;-74
2023/04/21 00:29:40;;;;;;;1999.90;999.90;;;8.00;99.90;;;;;;5093430;28;20380;-69
2023/04/21 00:32:08;;;;;;;1999.90;999.90;;;7.90;99.90;;;;;;5095824;28;20387;-69
2023/04/21 00:34:34;;;;;;;1999.90;999.90;;;7.80;99.90;;;;;;5096121;28;20035;-69
2023/04/21 00:37:00;;;;;;;1999.90;999.90;;;7.70;99.90;;;;;;5096245;28;20095;-75
2023/04/21 00:39:25;;;;;;;1999.90;999.90;;;7.70;99.90;;;;;;5095717;28;20031;-74
2023/04/21 00:41:51;;;;;;;1999.90;999.90;;;7.70;99.90;;;;;;5095976;28;20027;-74
2023/04/21 00:44:17;;;;;;;1999.90;999.90;;;7.60;99.90;;;;;;5095593;28;20028;-77
2023/04/21 00:46:42;;;;;;;1999.90;999.90;;;7.60;99.90;;;;;;5092874;28;20020;-69
2023/04/21 00:49:08;;;;;;;1999.90;999.90;;;7.60;99.90;;;;;;5074695;28;20028;-75
2023/04/21 00:51:35;;;;;;;1999.90;999.90;;;7.60;99.90;;;;;;5073838;28;20044;-70
2023/04/21 00:54:05;;;;;;;1999.90;999.90;;;7.50;99.90;;;;;;5075077;28;20025;-75
2023/04/21 00:56:33;;;;;;;1999.90;999.90;;;7.50;99.90;;;;;;5075406;28;20127;-69
2023/04/21 00:59:00;;;;;;;1999.90;999.90;;;7.50;99.90;;;;;;5075151;28;20056;-70
2023/04/21 01:01:28;;;;;;;1999.90;999.90;;;7.40;99.90;;;;;;5075556;28;20496;-75
2023/04/21 01:03:59;;;;;;;1999.90;999.90;;;7.40;99.90;;;;;;5074955;28;20107;-69
2023/04/21 01:06:33;;;;;;;1999.90;999.90;;;7.40;99.90;;;;;;5057009;28;20502;-75
2023/04/21 01:08:59;;;;;;;1999.90;999.90;;;7.30;99.90;;;;;;5075039;28;20039;-75
2023/04/21 01:11:25;;;;;;;1999.90;999.90;;;7.30;99.90;;;;;;5075380;28;20029;-70
2023/04/21 01:13:54;;;;;;;1999.90;999.90;;;7.30;99.90;;;;;;5075242;28;20396;-75
2023/04/21 01:16:21;;;;;;;1999.90;999.90;;;7.30;99.90;;;;;;5075078;28;20025;-75
2023/04/21 01:18:47;;;;;;;1999.90;999.90;;;7.20;99.90;;;;;;5073805;28;20032;-70
2023/04/21 01:21:14;;;;;;;1999.90;999.90;;;7.20;99.90;;;;;;5074273;28;20017;-69
2023/04/21 01:23:40;;;;;;;1999.90;999.90;;;7.20;99.90;;;;;;5074908;28;20037;-75
2023/04/21 01:26:05;;;;;;;1999.90;999.90;;;7.20;99.90;;;;;;5074602;28;20094;-70
2023/04/21 01:28:31;;;;;;;1999.90;999.90;;;7.20;99.90;;;;;;5082768;28;20036;-75
2023/04/21 01:30:57;;;;;;;1999.90;999.90;;;7.10;99.90;;;;;;5094725;28;20032;-70
2023/04/21 01:33:22;;;;;;;1999.90;999.90;;;7.20;99.90;;;;;;5094514;28;20036;-69
2023/04/21 01:35:48;;;;;;;1999.90;999.90;;;7.20;99.90;;;;;;5094148;28;20020;-69
2023/04/21 01:38:18;;;;;;;1999.90;999.90;;;7.30;99.90;;;;;;5094924;28;20069;-70
2023/04/21 01:40:48;;;;;;;1999.90;999.90;;;7.20;99.90;;;;;;5094643;28;20016;-69
2023/04/21 01:43:16;;;;;;;1999.90;999.90;;;7.20;99.90;;;;;;5094514;28;20495;-75
2023/04/21 01:45:42;;;;;;;1999.90;999.90;;;7.10;99.90;;;;;;5094724;28;20028;-69
2023/04/21 01:48:08;;;;;;;1999.90;999.90;;;7.00;99.90;;;;;;5079658;28;20109;-69
2023/04/21 01:50:34;;;;;;;1999.90;999.90;;;7.00;99.90;;;;;;5074237;28;20115;-70
2023/04/21 01:52:59;;;;;;;1999.90;999.90;;;7.00;99.90;;;;;;5074215;28;20028;-76
2023/04/21 01:55:25;;;;;;;1999.90;999.90;;;6.90;99.90;;;;;;5074373;28;20020;-69
2023/04/21 01:57:50;;;;;;;1999.90;999.90;;;6.80;99.90;;;;;;5073823;28;20395;-70
2023/04/21 02:00:16;;;;;;;1999.90;999.90;;;6.70;99.90;;;;;;5074005;28;20021;-70
2023/04/21 02:02:42;;;;;;;1999.90;999.90;;;6.60;99.90;;;;;;5072691;28;20483;-69
2023/04/21 02:05:08;;;;;;;1999.90;999.90;;;6.50;99.90;;;;;;5073880;28;20031;-74
2023/04/21 02:07:33;;;;;;;1999.90;999.90;;;6.40;99.90;;;;;;5074284;28;20025;-75
2023/04/21 02:09:59;;;;;;;1999.90;999.90;;;6.30;99.90;;;;;;5073708;28;20032;-69
2023/04/21 02:12:24;;;;;;;1999.90;999.90;;;6.20;99.90;;;;;;5073701;28;20085;-75
2023/04/21 02:14:50;;;;;;;1999.90;999.90;;;6.20;99.90;;;;;;5073904;28;20104;-75
2023/04/21 02:17:16;;;;;;;1999.90;999.90;;;6.10;99.90;;;;;;5073831;28;20024;-69
2023/04/21 02:19:42;;;;;;;1999.90;999.90;;;6.10;99.90;;;;;;5073369;28;20035;-75
2023/04/21 02:22:09;;;;;;;1999.90;999.90;;;6.00;99.90;;;;;;5073133;28;20028;-71
2023/04/21 02:24:35;;;;;;;1999.90;999.90;;;5.90;99.90;;;;;;5073544;28;20020;-75
2023/04/21 02:27:01;;;;;;;1999.90;999.90;;;5.90;99.90;;;;;;5073582;28;20036;-69
2023/04/21 02:29:27;;;;;;;1999.90;999.90;;;5.90;99.90;;;;;;5089393;28;20021;-75
2023/04/21 02:31:53;;;;;;;1999.90;999.90;;;5.80;99.90;;;;;;5093141;28;20081;-75
2023/04/21 02:34:19;;;;;;;1999.90;999.90;;;5.80;99.90;;;;;;5093561;28;20024;-75
2023/04/21 02:36:45;;;;;;;1999.90;999.90;;;5.70;99.90;;;;;;5093685;28;20073;-75
2023/04/21 02:39:11;;;;;;;1999.90;999.90;;;5.60;99.90;;;;;;5093828;28;20024;-69
2023/04/21 02:41:37;;;;;;;1999.90;999.90;;;5.60;99.90;;;;;;5093375;28;20032;-69
2023/04/21 02:44:03;;;;;;;1999.90;999.90;;;5.60;99.90;;;;;;5093780;28;20072;-70
2023/04/21 02:46:29;;;;;;;1999.90;999.90;;;5.50;99.90;;;;;;5091577;28;20055;-75
2023/04/21 02:48:55;;;;;;;1999.90;999.90;;;5.50;99.90;;;;;;5073420;28;20498;-69
2023/04/21 02:51:21;;;;;;;1999.90;999.90;;;5.40;99.90;;;;;;5073033;28;20052;-75
2023/04/21 02:53:46;;;;;;;1999.90;999.90;;;5.40;99.90;;;;;;5072825;28;20036;-69
2023/04/21 02:56:12;;;;;;;1999.90;999.90;;;5.30;99.90;;;;;;5073565;28;20032;-75
2023/04/21 02:58:37;;;;;;;1999.90;999.90;;;5.30;99.90;;;;;;5073145;28;20040;-75
2023/04/21 03:01:04;;;;;;;1999.90;999.90;;;5.30;99.90;;;;;;5073130;28;20029;-69
2023/04/21 03:03:31;;;;;;;1999.90;999.90;;;5.20;99.90;;;;;;5073128;28;20031;-75
2023/04/21 03:05:58;;;;;;;1999.90;999.90;;;5.20;99.90;;;;;;5073096;28;20043;-69
2023/04/21 03:08:24;;;;;;;1999.90;999.90;;;5.30;99.90;;;;;;5072889;28;20024;-69
2023/04/21 03:10:49;;;;;;;1999.90;999.90;;;5.20;99.90;;;;;;5073239;28;20035;-75
2023/04/21 03:13:16;;;;;;;1999.90;999.90;;;5.30;99.90;;;;;;5072642;28;20033;-75
2023/04/21 03:15:42;;;;;;;1999.90;999.90;;;5.40;99.90;;;;;;5073100;28;20024;-75
2023/04/21 03:18:07;;;;;;;1999.90;999.90;;;5.40;99.90;;;;;;5072746;28;20016;-75
2023/04/21 03:20:33;;;;;;;1999.90;999.90;;;5.50;99.90;;;;;;5073043;28;20024;-69
2023/04/21 03:22:59;;;;;;;1999.90;999.90;;;5.50;99.90;;;;;;5072367;28;20058;-69
2023/04/21 03:25:26;;;;;;;1999.90;999.90;;;5.60;99.90;;;;;;5054650;28;20032;-75
2023/04/21 03:27:52;;;;;;;1999.90;999.90;;;5.50;99.90;;;;;;5072597;28;20502;-75
2023/04/21 03:30:18;;;;;;;1999.90;999.90;;;5.50;99.90;;;;;;5072726;28;20024;-69
2023/04/21 03:32:44;;;;;;;1999.90;999.90;;;5.50;99.90;;;;;;5072635;28;20087;-69
2023/04/21 03:35:10;;;;;;;1999.90;999.90;;;5.50;99.90;;;;;;5072906;28;20056;-69
2023/04/21 03:37:35;;;;;;;1999.90;999.90;;;5.40;99.90;;;;;;5072968;28;20099;-75
2023/04/21 03:40:01;;;;;;;1999.90;999.90;;;5.40;99.90;;;;;;5072695;28;20028;-75
2023/04/21 03:42:28;;;;;;;1999.90;999.90;;;5.40;99.90;;;;;;5072468;28;20023;-70
2023/04/21 03:44:54;;;;;;;1999.90;999.90;;;5.30;99.90;;;;;;5072539;28;20032;-75
2023/04/21 03:47:20;;;;;;;1999.90;999.90;;;5.30;99.90;;;;;;5072634;28;20028;-69
2023/04/21 03:49:45;;;;;;;1999.90;999.90;;;5.30;99.90;;;;;;5072366;28;20032;-74
2023/04/21 03:52:11;;;;;;;1999.90;999.90;;;5.20;99.90;;;;;;5072647;28;20558;-69
2023/04/21 03:54:37;;;;;;;1999.90;999.90;;;5.20;99.90;;;;;;5072546;28;20063;-69
2023/04/21 03:57:02;;;;;;;1999.90;999.90;;;5.10;99.90;;;;;;5072687;28;20472;-75
2023/04/21 03:59:28;;;;;;;1999.90;999.90;;;5.20;99.90;;;;;;5075528;28;20059;-69
2023/04/21 04:01:53;;;;;;;1999.90;999.90;;;5.20;99.90;;;;;;5076269;28;20452;-69
2023/04/21 04:04:19;;;;;;;1999.90;999.90;;;5.10;99.90;;;;;;5076235;28;20036;-75
2023/04/21 04:06:45;;;;;;;1999.90;999.90;;;5.10;99.90;;;;;;5076524;28;20107;-75
2023/04/21 04:09:10;;;;;;;1999.90;999.90;;;5.10;99.90;;;;;;5076325;28;20056;-69
2023/04/21 04:11:36;;;;;;;1999.90;999.90;;;5.00;99.90;;;;;;5076576;28;20028;-69
2023/04/21 04:14:01;;;;;;;1999.90;999.90;;;5.00;99.90;;;;;;5076247;28;20037;-69
2023/04/21 04:16:27;;;;;;;1999.90;999.90;;;4.90;99.90;;;;;;5075966;28;20100;-75
2023/04/21 04:18:53;;;;;;;1999.90;999.90;;;4.90;99.90;;;;;;5075372;28;20108;-69
2023/04/21 04:21:19;;;;;;;1999.90;999.90;;;4.90;99.90;;;;;;5075989;28;20078;-75
2023/04/21 04:23:45;;;;;;;1999.90;999.90;;;4.80;99.90;;;;;;5075313;28;20027;-69
2023/04/21 04:26:11;;;;;;;1999.90;999.90;;;4.80;99.90;;;;;;5075774;28;20038;-70
2023/04/21 04:28:37;;;;;;;1999.90;999.90;;;4.70;99.90;;;;;;5084545;28;20115;-75
2023/04/21 04:31:02;;;;;;;1999.90;999.90;;;4.70;99.90;;;;;;5096085;28;20103;-75
2023/04/21 04:33:28;;;;;;;1999.90;999.90;;;4.70;99.90;;;;;;5095899;28;20028;-75
2023/04/21 04:35:54;;;;;;;1999.90;999.90;;;4.70;99.90;;;;;;5096429;28;20021;-69
2023/04/21 04:38:21;;;;;;;1999.90;999.90;;;4.60;99.90;;;;;;5095955;28;20031;-69
2023/04/21 04:40:53;;;;;;;1999.90;999.90;;;4.60;99.90;;;;;;5095949;28;20013;-69
2023/04/21 04:43:18;;;;;;;1999.90;999.90;;;4.60;99.90;;;;;;5096197;28;20031;-73
2023/04/21 04:45:44;;;;;;;1999.90;999.90;;;4.60;99.90;;;;;;5096342;28;20032;-75
2023/04/21 04:48:10;;;;;;;1999.90;999.90;;;4.50;99.90;;;;;;5080658;28;20027;-75
2023/04/21 04:50:35;;;;;;;1999.90;999.90;;;4.50;99.90;;;;;;5075362;28;20048;-69
2023/04/21 04:53:01;;;;;;;1999.90;999.90;;;4.50;99.90;;;;;;5075335;28;20048;-75
2023/04/21 04:55:26;;;;;;;1999.90;999.90;;;4.50;99.90;;;;;;5075311;28;20506;-69
2023/04/21 04:57:52;;;;;;;1999.90;999.90;;;4.60;99.90;;;;;;5075327;28;20024;-75
2023/04/21 05:00:18;;;;;;;1999.90;999.90;;;4.60;99.90;;;;;;5075325;28;20043;-69
2023/04/21 05:02:43;;;;;;;1999.90;999.90;;;4.60;99.90;;;;;;5075284;28;20025;-69
2023/04/21 05:05:09;;;;;;;1999.90;999.90;;;4.60;99.90;;;;;;5075388;28;20032;-69
2023/04/21 05:07:35;;;;;;;1999.90;999.90;;;4.70;99.90;;;;;;5075127;28;20171;-74
2023/04/21 05:10:03;;;;;;;1999.90;999.90;;;4.60;99.90;;;;;;5074025;28;20032;-75
2023/04/21 05:12:29;;;;;;;1999.90;999.90;;;4.70;99.90;;;;;;5075004;28;20419;-69
2023/04/21 05:14:54;;;;;;;1999.90;999.90;;;4.70;99.90;;;;;;5074878;28;20021;-75
2023/04/21 05:17:20;;;;;;;1999.90;999.90;;;4.70;99.90;;;;;;5056990;28;20492;-75
2023/04/21 05:19:45;;;;;;;1999.90;999.90;;;4.70;99.90;;;;;;5074801;28;20020;-69
2023/04/21 05:22:11;;;;;;;1999.90;999.90;;;4.60;99.90;;;;;;5074688;28;20031;-75
2023/04/21 05:24:37;;;;;;;1999.90;999.90;;;4.60;99.90;;;;;;5074178;28;20418;-75
2023/04/21 05:27:02;;;;;;;1999.90;999.90;;;4.70;99.90;;;;;;5075236;28;20107;-75
2023/04/21 05:29:28;;;;;;;1999.90;999.90;;;4.60;99.90;;;;;;5090480;28;20047;-69
2023/04/21 05:31:54;;;;;;;1999.90;999.90;;;4.60;99.90;;;;;;5094929;28;20021;-69
2023/04/21 05:34:20;;;;;;;1999.90;999.90;;;4.60;99.90;;;;;;5094715;28;20119;-69
2023/04/21 05:36:47;;;;;;;1999.90;999.90;;;4.60;99.90;;;;;;5095002;28;20028;-69
2023/04/21 05:39:13;;;;;;;1999.90;999.90;;;4.70;99.90;;;;;;5094800;28;20016;-75
2023/04/21 05:41:39;;;;;;;1999.90;999.90;;;4.70;99.90;;;;;;5094580;28;20034;-75
2023/04/21 05:44:04;;;;;;;1999.90;999.90;;;4.70;99.90;;;;;;5094707;28;20088;-69
2023/04/21 05:46:30;;;;;;;1999.90;999.90;;;4.70;99.90;;;;;;5093732;28;20024;-77
2023/04/21 05:48:55;;;;;;;1999.90;999.90;;;4.80;99.90;;;;;;5074259;28;20054;-77
2023/04/21 05:51:21;;;;;;;1999.90;999.90;;;4.80;99.90;;;;;;5074288;28;20056;-77
2023/04/21 05:53:47;;;;;;;1999.90;999.90;;;4.90;99.90;;;;;;5055887;28;20017;-75
2023/04/21 05:56:13;;;;;;;1999.90;999.90;;;4.90;99.90;;;;;;5074023;28;20111;-69
2023/04/21 05:58:39;;;;;;;1999.90;999.90;;;5.00;99.90;;;;;;5074171;28;20029;-75
2023/04/21 06:01:08;;;;;;;1999.90;999.90;;;5.10;99.90;;;;;;5073397;28;20043;-75
2023/04/21 06:03:33;;;;;;;1999.90;999.90;;;5.10;99.90;;;;;;5073996;28;20031;-75
2023/04/21 06:06:01;;;;;;;1999.90;999.90;;;5.20;99.90;;;;;;5070913;28;20025;-69
2023/04/21 06:08:26;;;;;;;1999.90;999.90;;;5.40;99.90;;;;;;5071550;28;20032;-71
2023/04/21 06:10:52;;;;;;;1999.90;999.90;;;5.40;99.90;;;;;;5073149;28;20036;-69
2023/04/21 06:13:18;;;;;;;1999.90;999.90;;;5.50;99.90;;;;;;5055289;28;20054;-77
2023/04/21 06:15:43;;;;;;;1999.90;999.90;;;5.60;99.90;;;;;;5072815;28;20012;-72
2023/04/21 06:18:09;;;;;;;1999.90;999.90;;;5.70;99.90;;;;;;5068645;28;20019;-76
2023/04/21 06:20:35;;;;;;;1999.90;999.90;;;5.80;99.90;;;;;;5073010;28;20074;-71
2023/04/21 06:23:00;;;;;;;1999.90;999.90;;;5.90;99.90;;;;;;5072916;28;20074;-71
2023/04/21 06:25:26;;;;;;;1999.90;999.90;;;6.00;99.90;;;;;;5072373;28;20423;-71
2023/04/21 06:27:52;;;;;;;1999.90;999.90;;;6.10;99.90;;;;;;5087008;28;20457;-77
2023/04/21 06:30:17;;;;;;;1999.90;999.90;;;6.30;99.90;;;;;;5070880;28;20107;-75
2023/04/21 06:32:47;;;;;;;1999.90;999.90;;;6.50;99.90;;;;;;5072308;28;20031;-69
2023/04/21 06:35:13;;;;;;;1999.90;999.90;;;6.60;99.90;;;;;;5072186;28;20084;-69
2023/04/21 06:37:42;;;;;;;1999.90;999.90;;;6.70;99.90;;;;;;5087968;28;20016;-75
2023/04/21 06:40:08;;;;;;;1999.90;999.90;;;6.80;99.90;;;;;;5092667;28;20020;-75
2023/04/21 06:42:34;;;;;;;1999.90;999.90;;;6.90;99.90;;;;;;5092077;28;20372;-75
2023/04/21 06:44:59;;;;;;;1999.90;999.90;;;7.00;99.90;;;;;;5092271;28;20055;-75
2023/04/21 06:47:26;;;;;;;1999.90;999.90;;;7.10;99.90;;;;;;5079136;28;20086;-69
2023/04/21 06:49:51;;;;;;;1999.90;999.90;;;7.30;99.90;;;;;;5071683;28;20028;-69
2023/04/21 06:52:17;;;;;;;1999.90;999.90;;;7.60;99.90;;;;;;5072307;28;20415;-75
2023/04/21 06:54:42;;;;;;;1999.90;999.90;;;7.90;99.90;;;;;;5071776;28;20115;-69
2023/04/21 06:57:08;;;;;;;1999.90;999.90;;;8.00;99.90;;;;;;5072000;28;20028;-75
2023/04/21 06:59:34;;;;;;;1999.90;999.90;;;8.00;99.90;;;;;;5070435;28;20066;-70
2023/04/21 07:01:59;;;;;;;1999.90;999.90;;;8.00;99.90;;;;;;5069142;28;20025;-70
2023/04/21 07:04:28;;;;;;;1999.90;999.90;;;8.00;99.90;;;;;;5053098;28;20028;-75
2023/04/21 07:06:54;;;;;;;1999.90;999.90;;;8.20;99.90;;;;;;5078570;28;20554;-76
2023/04/21 07:09:20;;;;;;;1999.90;999.90;;;8.40;99.90;;;;;;5071527;28;20103;-76
2023/04/21 07:11:46;;;;;;;1999.90;999.90;;;8.50;99.90;;;;;;5077778;28;20028;-77
2023/04/21 07:14:11;;;;;;;1999.90;999.90;;;8.50;99.90;;;;;;5065156;28;20464;-70
2023/04/21 07:16:37;;;;;;;1999.90;999.90;;;8.60;99.90;;;;;;5068069;28;20415;-70
2023/04/21 07:19:02;;;;;;;1999.90;999.90;;;8.90;99.90;;;;;;5050054;28;20025;-77
2023/04/21 07:21:34;;;;;;;1999.90;999.90;;;9.30;99.90;;;;;;5077705;28;20024;-76
2023/04/21 07:24:01;;;;;;;1999.90;999.90;;;9.40;99.90;;;;;;5070562;28;20376;-77
2023/04/21 07:26:26;;;;;;;1999.90;999.90;;;9.40;99.90;;;;;;5069175;28;20029;-70
2023/04/21 07:28:54;;;;;;;1999.90;999.90;;;9.40;99.90;;;;;;5069825;28;20067;-69
2023/04/21 07:31:20;;;;;;;1999.90;999.90;;;9.70;99.90;;;;;;5070598;28;20017;-76
2023/04/21 07:33:45;;;;;;;1999.90;999.90;;;9.80;99.90;;;;;;5072737;28;20035;-76
2023/04/21 07:36:11;;;;;;;1999.90;999.90;;;9.80;99.90;;;;;;5078652;28;20100;-71
2023/04/21 07:38:37;;;;;;;1999.90;999.90;;;9.90;99.90;;;;;;5094956;28;20034;-70
2023/04/21 07:41:03;;;;;;;1999.90;999.90;;;10.00;99.90;;;;;;5095858;28;20039;-71
2023/04/21 07:43:30;;;;;;;1999.90;999.90;;;10.00;99.90;;;;;;5094706;28;20055;-76
2023/04/21 07:45:57;;;;;;;1999.90;999.90;;;10.20;99.90;;;;;;5095152;28;20740;-70
2023/04/21 07:48:23;;;;;;;1999.90;999.90;;;10.30;99.90;;;;;;5076021;28;20601;-77
2023/04/21 07:50:49;;;;;;;1999.90;999.90;;;10.50;99.90;;;;;;5074696;28;20121;-77
2023/04/21 07:53:15;;;;;;;1999.90;999.90;;;11.10;99.90;;;;;;5074939;28;20442;-71
2023/04/21 07:55:40;;;;;;;1999.90;999.90;;;11.40;99.90;;;;;;5081898;28;20065;-70
2023/04/21 07:58:06;;;;;;;1999.90;999.90;;;11.20;99.90;;;;;;5094093;28;20040;-77
2023/04/21 08:00:32;;;;;;;1999.90;999.90;;;11.80;99.90;;;;;;5085940;28;20059;-70
2023/04/21 08:02:58;;;;;;;1999.90;999.90;;;12.50;99.90;;;;;;5074814;28;20029;-77
2023/04/21 08:05:23;;;;;;;1999.90;999.90;;;14.00;99.90;;;;;;5073560;28;20457;-71
2023/04/21 08:07:49;;;;;;;1999.90;999.90;;;15.00;99.90;;;;;;5073566;28;20087;-71
2023/04/21 08:10:15;;;;;;;1999.90;999.90;;;17.30;99.90;;;;;;5076728;28;20028;-78
2023/04/21 08:12:41;;;;;;;1999.90;999.90;;;18.80;98.80;;;;;;5079408;28;20115;-78
2023/04/21 08:15:07;;;;;;;1999.90;999.90;;;18.80;97.40;;;;;;5073946;28;20230;-71
2023/04/21 08:17:33;;;;;;;1999.90;999.90;;;17.60;98.10;;;;;;5073890;28;20037;-76
2023/04/21 08:19:59;;;;;;;1999.90;999.90;;;17.80;98.70;;;;;;5073295;28;20032;-71
2023/04/21 08:22:25;;;;;;;1999.90;999.90;;;17.90;99.00;;;;;;5082056;28;20038;-77
2023/04/21 08:24:51;;;;;;;1999.90;999.90;;;18.90;98.40;;;;;;5093824;28;20032;-77
2023/04/21 08:27:16;;;;;;;1999.90;999.90;;;20.10;96.40;;;;;;5093852;28;20081;-78
2023/04/21 08:29:42;;;;;;;1999.90;999.90;;;21.10;93.50;;;;;;5074718;28;20056;-72
2023/04/21 08:32:07;;;;;;;1999.90;999.90;;;20.60;93.90;;;;;;5073873;28;20036;-71
2023/04/21 08:34:33;;;;;;;1999.90;999.90;;;19.60;94.30;;;;;;5074191;28;20062;-72
2023/04/21 08:36:59;;;;;;;1999.90;999.90;;;19.50;94.90;;;;;;5074143;28;20411;-78
2023/04/21 08:39:25;;;;;;;1999.90;999.90;;;19.90;95.20;;;;;;5074216;28;20012;-77
2023/04/21 08:41:52;;;;;;;1999.90;999.90;;;20.10;93.80;;;;;;5073507;28;20078;-77
2023/04/21 08:44:19;;;;;;;1999.90;999.90;;;20.90;92.70;;;;;;5074011;28;20070;-72
2023/04/21 08:46:48;;;;;;;1999.90;999.90;;;21.40;92.30;;;;;;5073210;28;20048;-78
2023/04/21 08:49:18;;;;;;;1999.90;999.90;;;22.10;91.90;;;;;;5055121;28;20017;-73
2023/04/21 08:51:44;;;;;;;1999.90;999.90;;;22.40;91.80;;;;;;5068027;28;20139;-78
2023/04/21 08:54:10;;;;;;;1999.90;999.90;;;22.30;90.40;;;;;;5074010;28;20029;-78
2023/04/21 08:56:36;;;;;;;1999.90;999.90;;;22.40;90.80;;;;;;5087614;28;20394;-73
2023/04/21 08:59:01;;;;;;;1999.90;999.90;;;23.30;90.10;;;;;;5094237;28;20069;-72
2023/04/21 09:01:27;;;;;;;1999.90;999.90;;;23.30;90.60;;;;;;5077881;28;20047;-78
2023/04/21 09:03:53;;;;;;;1999.90;999.90;;;23.30;90.10;;;;;;5073538;28;20056;-78
2023/04/21 09:06:18;;;;;;;1999.90;999.90;;;24.00;88.70;;;;;;5073549;28;20107;-78
2023/04/21 09:08:54;;;;;;;1999.90;999.90;;;24.00;86.90;;;;;;5073400;28;20029;-78
2023/04/21 09:11:21;;;;;;;1999.90;999.90;;;23.70;86.50;;;;;;5080441;28;20028;-73
2023/04/21 09:13:46;;;;;;;1999.90;999.90;;;22.70;89.60;;;;;;5072610;28;20060;-72
2023/04/21 09:16:18;;;;;;;1999.90;999.90;;;20.80;91.90;;;;;;5072529;28;20060;-76
2023/04/21 09:18:44;;;;;;;1999.90;999.90;;;20.70;92.30;;;;;;5073221;28;20020;-77
2023/04/21 09:21:12;;;;;;;1999.90;999.90;;;20.10;91.90;;;;;;5073665;28;20502;-77
2023/04/21 09:23:42;;;;;;;1999.90;999.90;;;18.60;94.30;;;;;;5072969;28;20675;-71
2023/04/21 09:26:09;;;;;;;1999.90;999.90;;;18.60;95.00;;;;;;5066506;28;20033;-71
2023/04/21 09:28:34;;;;;;;1999.90;999.90;;;20.00;93.80;;;;;;5077995;28;20048;-77
2023/04/21 09:31:00;;;;;;;1999.90;999.90;;;21.10;93.10;;;;;;5072427;28;20075;-78
2023/04/21 09:33:26;;;;;;;1999.90;999.90;;;21.20;90.90;;;;;;5071935;28;20016;-71
2023/04/21 09:35:52;;;;;;;1999.90;999.90;;;21.70;90.60;;;;;;5071695;28;20024;-72
2023/04/21 09:38:21;;;;;;;1999.90;999.90;;;22.50;90.70;;;;;;5071307;28;20153;-71
2023/04/21 09:40:58;;;;;;;1999.90;999.90;;;22.20;90.30;;;;;;5053649;28;20093;-71
2023/04/21 09:43:24;;;;;;;1999.90;999.90;;;22.20;90.50;;;;;;5064881;28;20099;-77
2023/04/21 09:45:51;;;;;;;1999.90;999.90;;;22.30;90.30;;;;;;5072500;28;20484;-77
2023/04/21 09:48:17;;;;;;;1999.90;999.90;;;22.50;90.20;;;;;;5069682;28;20028;-74
2023/04/21 09:50:44;;;;;;;1999.90;999.90;;;23.30;89.70;;;;;;5055547;28;20049;-71
2023/04/21 09:53:15;;;;;;;1999.90;999.90;;;23.90;86.70;;;;;;5072141;28;20054;-72
2023/04/21 09:55:41;;;;;;;1999.90;999.90;;;24.60;84.60;;;;;;5053135;28;20043;-79
2023/04/21 09:58:12;;;;;;;1999.90;999.90;;;23.80;84.60;;;;;;5071154;28;20028;-79
2023/04/21 10:00:38;;;;;;;1999.90;999.90;;;23.00;88.60;;;;;;5058197;28;20563;-80
2023/04/21 10:03:09;;;;;;;1999.90;999.90;;;22.70;88.00;;;;;;5071905;28;20016;-72
2023/04/21 10:05:35;;;;;;;1999.90;999.90;;;22.20;88.50;;;;;;5071460;28;20040;-72
2023/04/21 10:08:01;;;;;;;1999.90;999.90;;;23.00;88.50;;;;;;5071672;28;20506;-80
2023/04/21 10:10:33;;;;;;;1999.90;999.90;;;23.30;88.80;;;;;;5071960;28;20029;-73
2023/04/21 10:12:58;;;;;;;1999.90;999.90;;;23.50;86.60;;;;;;5071989;28;20087;-81
2023/04/21 10:15:29;;;;;;;1999.90;999.90;;;23.00;87.90;;;;;;5071548;28;20028;-71
2023/04/21 10:18:23;;;;;;;1999.90;999.90;;;22.20;88.90;;;;;;5069259;28;20032;-73
2023/04/21 10:20:56;;;;;;;1999.90;999.90;;;22.70;88.10;;;;;;5071781;28;20028;-72
2023/04/21 10:23:41;;;;;;;1999.90;999.90;;;21.70;88.60;;;;;;5072010;28;20020;-81
2023/04/21 10:26:19;;;;;;;1999.90;999.90;;;22.40;88.00;;;;;;5068933;28;20028;-79
2023/04/21 10:28:44;;;;;;;1999.90;999.90;;;20.60;90.00;;;;;;5071313;28;20073;-71
2023/04/21 10:31:32;;;;;;;1999.90;999.90;;;19.00;92.30;;;;;;5071644;28;20020;-70
2023/04/21 10:34:07;;;;;;;1999.90;999.90;;;18.70;93.40;;;;;;5070563;28;20021;-79
2023/04/21 10:36:53;;;;;;;1999.90;999.90;;;18.00;94.30;;;;;;5076875;28;20035;-79
2023/04/21 10:39:25;;;;;;;1999.90;999.90;;;18.80;94.40;;;;;;5040871;28;20041;-79
2023/04/21 10:41:53;;;;;;;1999.90;999.90;;;18.10;94.40;;;;;;5060258;28;20036;-71
2023/04/21 10:44:21;;;;;;;1999.90;999.90;;;17.60;95.90;;;;;;5071162;28;20120;-70
2023/04/21 10:46:51;;;;;;;1999.90;999.90;;;17.60;95.80;;;;;;5075461;28;20557;-79
2023/04/21 10:49:26;;;;;;;1999.90;999.90;;;18.30;96.10;;;;;;5071794;28;20139;-79
2023/04/21 10:54:25;;;;;;;1999.90;999.90;;;19.20;94.30;;;;;;5071377;28;20039;-70
2023/04/21 10:56:52;;;;;;;1999.90;999.90;;;19.50;93.10;;;;;;5059875;28;20028;-70
2023/04/21 10:59:18;;;;;;;1999.90;999.90;;;19.20;94.10;;;;;;5092190;28;20054;-79
2023/04/21 11:01:44;;;;;;;1999.90;999.90;;;19.10;94.50;;;;;;5077530;28;20074;-78
2023/04/21 11:04:18;;;;;;;1999.90;999.90;;;18.90;94.30;;;;;;5071607;28;20025;-79
2023/04/21 11:07:17;;;;;;;1999.90;999.90;;;19.20;95.30;;;;;;5070925;28;20035;-71
2023/04/21 11:09:45;;;;;;;1999.90;999.90;;;19.90;94.20;;;;;;5006151;28;20040;-71
2023/04/21 11:12:13;;;;;;;1999.90;999.90;;;19.70;93.30;;;;;;5071196;28;20039;-79
2023/04/21 11:14:40;;;;;;;1999.90;999.90;;;19.70;93.50;;;;;;5051897;28;20017;-78
2023/04/21 11:17:11;;;;;;;1999.90;999.90;;;19.40;94.90;;;;;;5060450;28;20025;-79
2023/04/21 11:19:37;;;;;;;1999.90;999.90;;;19.80;94.70;;;;;;5071077;28;20020;-71
2023/04/21 11:22:03;;;;;;;1999.90;999.90;;;20.00;92.70;;;;;;5072910;28;20037;-70
2023/04/21 11:24:30;;;;;;;1999.90;999.90;;;20.60;93.10;;;;;;5071559;28;20017;-79
2023/04/21 11:26:55;;;;;;;1999.90;999.90;;;21.00;93.70;;;;;;5071791;28;20390;-79
2023/04/21 11:29:21;;;;;;;1999.90;999.90;;;21.10;92.10;;;;;;5078275;28;20020;-79
2023/04/21 11:31:49;;;;;;;1999.90;999.90;;;20.90;92.70;;;;;;5076472;28;20028;-79
2023/04/21 11:34:15;;;;;;;1999.90;999.90;;;21.30;92.10;;;;;;5091789;28;20106;-70
2023/04/21 11:36:45;;;;;;;1999.90;999.90;;;21.80;91.40;;;;;;5091668;28;20027;-79
2023/04/21 11:39:16;;;;;;;1999.90;999.90;;;21.80;91.10;;;;;;5091121;28;20103;-78
2023/04/21 11:41:44;;;;;;;1999.90;999.90;;;21.80;90.40;;;;;;5091835;28;20684;-79
2023/04/21 11:44:11;;;;;;;1999.90;999.90;;;21.10;92.90;;;;;;5091665;28;20028;-78
2023/04/21 11:46:36;;;;;;;1999.90;999.90;;;20.30;93.20;;;;;;5076442;28;20047;-70
2023/04/21 11:49:09;;;;;;;1999.90;999.90;;;20.30;93.90;;;;;;5062970;28;20043;-71
2023/04/21 11:51:42;;;;;;;;;;;20.20;92.40;;;;;;5069535;28;20474;-70
2023/04/21 11:54:12;;;;;;;1999.90;999.90;;;20.20;94.40;;;;;;5070105;28;20362;-78
2023/04/21 11:56:40;;;;;;;1999.90;999.90;;;19.80;93.60;;;;;;5052534;28;20317;-79
2023/04/21 11:59:18;;;;;;;1999.90;999.90;;;19.70;95.40;;;;;;5070866;28;20108;-70
2023/04/21 12:01:47;;;;;;;1999.90;999.90;;;19.60;94.50;;;;;;5069952;28;20394;-79
2023/04/21 12:04:17;;;;;;;1999.90;999.90;;;19.50;93.70;;;;;;5070504;28;20032;-79
2023/04/21 12:06:44;;;;;;;1999.90;999.90;;;19.50;93.10;;;;;;5070386;28;20032;-79